sensor_id;sensor_type;location;lat;lon;timestamp;P1;durP1;ratioP1;P2;durP2;ratioP2
44508;SDS011;30214;52.246;14.408;2023-03-05T00:02:19;4.70;;;1.95;;
44508;SDS011;30214;52.246;14.408;2023-03-05T00:04:46;4.57;;;2.03;;
44508;SDS011;30214;52.246;14.408;2023-03-05T00:07:13;5.82;;;1.60;;
44508;SDS011;30214;52.246;14.408;2023-03-05T00:09:40;7.40;;;1.60;;
44508;SDS011;30214;52.246;14.408;2023-03-05T00:12:07;5.25;;;1.60;;
44508;SDS011;30214;52.246;14.408;2023-03-05T00:14:37;7.10;;;1.85;;
44508;SDS011;30214;52.246;14.408;2023-03-05T00:17:04;7.60;;;1.67;;
44508;SDS011;30214;52.246;14.408;2023-03-05T00:19:31;4.40;;;2.05;;
44508;SDS011;30214;52.246;14.408;2023-03-05T00:21:58;3.20;;;1.42;;
44508;SDS011;30214;52.246;14.408;2023-03-05T00:24:25;5.47;;;1.77;;
44508;SDS011;30214;52.246;14.408;2023-03-05T00:26:52;7.50;;;2.20;;
44508;SDS011;30214;52.246;14.408;2023-03-05T00:29:21;5.35;;;1.73;;
44508;SDS011;30214;52.246;14.408;2023-03-05T00:31:49;6.90;;;1.90;;
44508;SDS011;30214;52.246;14.408;2023-03-05T00:34:17;5.32;;;1.70;;
44508;SDS011;30214;52.246;14.408;2023-03-05T00:36:45;4.50;;;1.70;;
44508;SDS011;30214;52.246;14.408;2023-03-05T00:39:15;5.25;;;1.88;;
44508;SDS011;30214;52.246;14.408;2023-03-05T00:41:42;4.95;;;1.63;;
44508;SDS011;30214;52.246;14.408;2023-03-05T00:44:10;5.63;;;1.50;;
44508;SDS011;30214;52.246;14.408;2023-03-05T00:46:38;5.95;;;1.58;;
44508;SDS011;30214;52.246;14.408;2023-03-05T00:49:06;4.88;;;1.77;;
44508;SDS011;30214;52.246;14.408;2023-03-05T00:51:33;4.70;;;1.95;;
44508;SDS011;30214;52.246;14.408;2023-03-05T00:54:01;4.90;;;1.73;;
44508;SDS011;30214;52.246;14.408;2023-03-05T00:56:29;5.28;;;2.00;;
44508;SDS011;30214;52.246;14.408;2023-03-05T00:58:56;4.82;;;1.50;;
44508;SDS011;30214;52.246;14.408;2023-03-05T01:01:23;4.32;;;1.52;;
44508;SDS011;30214;52.246;14.408;2023-03-05T01:03:51;4.68;;;1.63;;
44508;SDS011;30214;52.246;14.408;2023-03-05T01:06:21;8.95;;;2.50;;
44508;SDS011;30214;52.246;14.408;2023-03-05T01:08:49;7.18;;;2.00;;
44508;SDS011;30214;52.246;14.408;2023-03-05T01:11:16;8.55;;;1.80;;
44508;SDS011;30214;52.246;14.408;2023-03-05T01:13:43;8.27;;;2.05;;
44508;SDS011;30214;52.246;14.408;2023-03-05T01:16:10;10.68;;;2.00;;
44508;SDS011;30214;52.246;14.408;2023-03-05T01:18:37;7.05;;;2.15;;
44508;SDS011;30214;52.246;14.408;2023-03-05T01:21:05;10.10;;;2.22;;
44508;SDS011;30214;52.246;14.408;2023-03-05T01:23:34;10.50;;;2.05;;
44508;SDS011;30214;52.246;14.408;2023-03-05T01:26:01;9.77;;;2.47;;
44508;SDS011;30214;52.246;14.408;2023-03-05T01:28:29;7.50;;;2.33;;
44508;SDS011;30214;52.246;14.408;2023-03-05T01:30:57;11.52;;;2.67;;
44508;SDS011;30214;52.246;14.408;2023-03-05T01:33:24;12.68;;;3.05;;
44508;SDS011;30214;52.246;14.408;2023-03-05T01:35:52;11.93;;;3.25;;
44508;SDS011;30214;52.246;14.408;2023-03-05T01:38:19;12.18;;;3.15;;
44508;SDS011;30214;52.246;14.408;2023-03-05T01:40:47;16.75;;;3.28;;
44508;SDS011;30214;52.246;14.408;2023-03-05T01:43:21;11.45;;;3.05;;
44508;SDS011;30214;52.246;14.408;2023-03-05T01:48:54;14.63;;;3.40;;
44508;SDS011;30214;52.246;14.408;2023-03-05T01:51:42;14.95;;;3.40;;
44508;SDS011;30214;52.246;14.408;2023-03-05T01:54:20;20.48;;;3.83;;
44508;SDS011;30214;52.246;14.408;2023-03-05T01:56:52;14.98;;;3.55;;
44508;SDS011;30214;52.246;14.408;2023-03-05T01:59:22;20.83;;;4.40;;
44508;SDS011;30214;52.246;14.408;2023-03-05T02:01:53;19.27;;;4.05;;
44508;SDS011;30214;52.246;14.408;2023-03-05T02:04:22;18.63;;;3.60;;
44508;SDS011;30214;52.246;14.408;2023-03-05T02:06:57;16.38;;;3.55;;
44508;SDS011;30214;52.246;14.408;2023-03-05T02:09:26;14.35;;;3.15;;
44508;SDS011;30214;52.246;14.408;2023-03-05T02:11:55;17.38;;;3.80;;
44508;SDS011;30214;52.246;14.408;2023-03-05T02:14:23;14.05;;;3.20;;
44508;SDS011;30214;52.246;14.408;2023-03-05T02:16:50;15.90;;;3.55;;
44508;SDS011;30214;52.246;14.408;2023-03-05T02:19:17;15.32;;;4.07;;
44508;SDS011;30214;52.246;14.408;2023-03-05T02:21:46;18.33;;;3.60;;
44508;SDS011;30214;52.246;14.408;2023-03-05T02:24:16;23.00;;;4.78;;
44508;SDS011;30214;52.246;14.408;2023-03-05T02:26:56;18.63;;;3.97;;
44508;SDS011;30214;52.246;14.408;2023-03-05T02:29:24;21.73;;;3.72;;
44508;SDS011;30214;52.246;14.408;2023-03-05T02:31:54;21.30;;;4.13;;
44508;SDS011;30214;52.246;14.408;2023-03-05T02:34:21;13.85;;;2.72;;
44508;SDS011;30214;52.246;14.408;2023-03-05T02:36:51;14.57;;;3.25;;
44508;SDS011;30214;52.246;14.408;2023-03-05T02:39:20;15.57;;;3.60;;
44508;SDS011;30214;52.246;14.408;2023-03-05T02:41:47;22.73;;;4.00;;
44508;SDS011;30214;52.246;14.408;2023-03-05T02:44:18;19.50;;;4.07;;
44508;SDS011;30214;52.246;14.408;2023-03-05T02:46:45;15.68;;;3.42;;
44508;SDS011;30214;52.246;14.408;2023-03-05T02:49:12;13.65;;;3.03;;
44508;SDS011;30214;52.246;14.408;2023-03-05T02:51:40;22.73;;;3.58;;
44508;SDS011;30214;52.246;14.408;2023-03-05T02:54:09;16.98;;;3.72;;
44508;SDS011;30214;52.246;14.408;2023-03-05T02:56:36;22.30;;;3.83;;
44508;SDS011;30214;52.246;14.408;2023-03-05T02:59:04;18.10;;;3.20;;
44508;SDS011;30214;52.246;14.408;2023-03-05T03:01:31;14.32;;;3.17;;
44508;SDS011;30214;52.246;14.408;2023-03-05T03:03:58;15.95;;;4.53;;
44508;SDS011;30214;52.246;14.408;2023-03-05T03:06:25;15.40;;;3.47;;
44508;SDS011;30214;52.246;14.408;2023-03-05T03:08:52;17.58;;;3.60;;
44508;SDS011;30214;52.246;14.408;2023-03-05T03:11:20;15.52;;;2.22;;
44508;SDS011;30214;52.246;14.408;2023-03-05T03:13:47;12.52;;;2.90;;
44508;SDS011;30214;52.246;14.408;2023-03-05T03:16:15;21.27;;;2.72;;
44508;SDS011;30214;52.246;14.408;2023-03-05T03:18:42;18.92;;;2.50;;
44508;SDS011;30214;52.246;14.408;2023-03-05T03:21:15;11.35;;;2.47;;
44508;SDS011;30214;52.246;14.408;2023-03-05T03:23:44;12.30;;;2.30;;
44508;SDS011;30214;52.246;14.408;2023-03-05T03:26:11;15.07;;;2.60;;
44508;SDS011;30214;52.246;14.408;2023-03-05T03:28:39;11.48;;;2.10;;
44508;SDS011;30214;52.246;14.408;2023-03-05T03:31:07;12.02;;;2.53;;
44508;SDS011;30214;52.246;14.408;2023-03-05T03:33:34;14.50;;;2.58;;
44508;SDS011;30214;52.246;14.408;2023-03-05T03:36:02;14.35;;;3.20;;
44508;SDS011;30214;52.246;14.408;2023-03-05T03:38:30;16.40;;;2.28;;
44508;SDS011;30214;52.246;14.408;2023-03-05T03:40:57;14.85;;;2.38;;
44508;SDS011;30214;52.246;14.408;2023-03-05T03:43:24;13.40;;;2.00;;
44508;SDS011;30214;52.246;14.408;2023-03-05T03:45:53;13.27;;;2.03;;
44508;SDS011;30214;52.246;14.408;2023-03-05T03:48:20;11.07;;;2.10;;
44508;SDS011;30214;52.246;14.408;2023-03-05T03:50:47;13.27;;;2.05;;
44508;SDS011;30214;52.246;14.408;2023-03-05T03:53:14;9.15;;;2.50;;
44508;SDS011;30214;52.246;14.408;2023-03-05T03:55:41;10.20;;;1.80;;
44508;SDS011;30214;52.246;14.408;2023-03-05T03:58:10;9.35;;;1.90;;
44508;SDS011;30214;52.246;14.408;2023-03-05T04:00:38;9.88;;;1.88;;
44508;SDS011;30214;52.246;14.408;2023-03-05T04:03:07;6.88;;;1.70;;
44508;SDS011;30214;52.246;14.408;2023-03-05T04:05:34;11.98;;;2.22;;
44508;SDS011;30214;52.246;14.408;2023-03-05T04:08:02;10.48;;;2.40;;
44508;SDS011;30214;52.246;14.408;2023-03-05T04:10:32;12.00;;;2.33;;
44508;SDS011;30214;52.246;14.408;2023-03-05T04:13:02;9.82;;;1.70;;
44508;SDS011;30214;52.246;14.408;2023-03-05T04:15:29;10.88;;;1.40;;
44508;SDS011;30214;52.246;14.408;2023-03-05T04:17:57;12.07;;;2.40;;
44508;SDS011;30214;52.246;14.408;2023-03-05T04:20:26;11.10;;;2.08;;
44508;SDS011;30214;52.246;14.408;2023-03-05T04:22:53;8.50;;;1.60;;
44508;SDS011;30214;52.246;14.408;2023-03-05T04:25:20;9.20;;;1.90;;
44508;SDS011;30214;52.246;14.408;2023-03-05T04:27:49;10.90;;;1.67;;
44508;SDS011;30214;52.246;14.408;2023-03-05T04:30:16;9.63;;;1.75;;
44508;SDS011;30214;52.246;14.408;2023-03-05T04:32:44;12.10;;;2.35;;
44508;SDS011;30214;52.246;14.408;2023-03-05T04:35:11;10.23;;;1.75;;
44508;SDS011;30214;52.246;14.408;2023-03-05T04:37:39;11.63;;;1.95;;
44508;SDS011;30214;52.246;14.408;2023-03-05T04:40:07;13.38;;;2.08;;
44508;SDS011;30214;52.246;14.408;2023-03-05T04:42:35;8.93;;;2.17;;
44508;SDS011;30214;52.246;14.408;2023-03-05T04:45:02;9.90;;;1.90;;
44508;SDS011;30214;52.246;14.408;2023-03-05T04:47:30;9.52;;;1.92;;
44508;SDS011;30214;52.246;14.408;2023-03-05T04:49:57;10.60;;;1.70;;
44508;SDS011;30214;52.246;14.408;2023-03-05T04:52:24;11.18;;;1.88;;
44508;SDS011;30214;52.246;14.408;2023-03-05T04:54:55;12.70;;;1.88;;
44508;SDS011;30214;52.246;14.408;2023-03-05T04:57:22;10.48;;;1.75;;
44508;SDS011;30214;52.246;14.408;2023-03-05T04:59:50;7.80;;;1.70;;
44508;SDS011;30214;52.246;14.408;2023-03-05T05:02:17;7.43;;;1.80;;
44508;SDS011;30214;52.246;14.408;2023-03-05T05:04:44;8.45;;;1.90;;
44508;SDS011;30214;52.246;14.408;2023-03-05T05:07:11;6.65;;;1.65;;
44508;SDS011;30214;52.246;14.408;2023-03-05T05:09:38;9.63;;;2.65;;
44508;SDS011;30214;52.246;14.408;2023-03-05T05:12:07;11.10;;;1.67;;
44508;SDS011;30214;52.246;14.408;2023-03-05T05:14:35;6.28;;;1.63;;
44508;SDS011;30214;52.246;14.408;2023-03-05T05:17:02;8.70;;;1.70;;
44508;SDS011;30214;52.246;14.408;2023-03-05T05:19:30;9.85;;;1.85;;
44508;SDS011;30214;52.246;14.408;2023-03-05T05:21:57;7.90;;;1.90;;
44508;SDS011;30214;52.246;14.408;2023-03-05T05:24:24;12.63;;;2.00;;
44508;SDS011;30214;52.246;14.408;2023-03-05T05:26:52;10.05;;;1.73;;
44508;SDS011;30214;52.246;14.408;2023-03-05T05:29:22;10.55;;;1.65;;
44508;SDS011;30214;52.246;14.408;2023-03-05T05:31:50;7.80;;;1.27;;
44508;SDS011;30214;52.246;14.408;2023-03-05T05:34:18;10.35;;;1.85;;
44508;SDS011;30214;52.246;14.408;2023-03-05T05:36:45;12.30;;;2.13;;
44508;SDS011;30214;52.246;14.408;2023-03-05T05:39:12;5.95;;;1.60;;
44508;SDS011;30214;52.246;14.408;2023-03-05T05:41:39;10.63;;;1.50;;
44508;SDS011;30214;52.246;14.408;2023-03-05T05:44:06;7.55;;;2.08;;
44508;SDS011;30214;52.246;14.408;2023-03-05T05:46:34;10.02;;;2.08;;
44508;SDS011;30214;52.246;14.408;2023-03-05T05:49:02;18.42;;;2.50;;
44508;SDS011;30214;52.246;14.408;2023-03-05T05:51:29;7.97;;;1.60;;
44508;SDS011;30214;52.246;14.408;2023-03-05T05:53:56;10.43;;;1.48;;
44508;SDS011;30214;52.246;14.408;2023-03-05T05:56:23;11.27;;;2.85;;
44508;SDS011;30214;52.246;14.408;2023-03-05T05:58:50;8.75;;;1.73;;
44508;SDS011;30214;52.246;14.408;2023-03-05T06:01:18;10.52;;;2.03;;
44508;SDS011;30214;52.246;14.408;2023-03-05T06:03:50;6.65;;;1.80;;
44508;SDS011;30214;52.246;14.408;2023-03-05T06:06:18;6.32;;;1.55;;
44508;SDS011;30214;52.246;14.408;2023-03-05T06:08:47;9.15;;;1.92;;
44508;SDS011;30214;52.246;14.408;2023-03-05T06:11:15;6.75;;;1.73;;
44508;SDS011;30214;52.246;14.408;2023-03-05T06:13:43;11.02;;;2.17;;
44508;SDS011;30214;52.246;14.408;2023-03-05T06:16:11;7.88;;;1.50;;
44508;SDS011;30214;52.246;14.408;2023-03-05T06:18:41;8.90;;;2.03;;
44508;SDS011;30214;52.246;14.408;2023-03-05T06:21:10;6.47;;;1.83;;
44508;SDS011;30214;52.246;14.408;2023-03-05T06:23:39;5.80;;;1.30;;
44508;SDS011;30214;52.246;14.408;2023-03-05T06:26:06;5.75;;;1.50;;
44508;SDS011;30214;52.246;14.408;2023-03-05T06:28:35;6.78;;;1.60;;
44508;SDS011;30214;52.246;14.408;2023-03-05T06:31:04;8.80;;;2.08;;
44508;SDS011;30214;52.246;14.408;2023-03-05T06:33:33;8.20;;;1.70;;
44508;SDS011;30214;52.246;14.408;2023-03-05T06:36:01;6.10;;;2.00;;
44508;SDS011;30214;52.246;14.408;2023-03-05T06:38:31;8.55;;;1.75;;
44508;SDS011;30214;52.246;14.408;2023-03-05T06:40:59;6.15;;;1.33;;
44508;SDS011;30214;52.246;14.408;2023-03-05T06:43:26;11.77;;;1.48;;
44508;SDS011;30214;52.246;14.408;2023-03-05T06:46:00;9.85;;;2.00;;
44508;SDS011;30214;52.246;14.408;2023-03-05T06:48:31;7.40;;;1.45;;
44508;SDS011;30214;52.246;14.408;2023-03-05T06:50:58;9.43;;;1.92;;
44508;SDS011;30214;52.246;14.408;2023-03-05T06:53:25;7.15;;;1.77;;
44508;SDS011;30214;52.246;14.408;2023-03-05T06:55:54;10.20;;;1.60;;
44508;SDS011;30214;52.246;14.408;2023-03-05T06:58:21;10.93;;;2.05;;
44508;SDS011;30214;52.246;14.408;2023-03-05T07:00:48;7.03;;;1.60;;
44508;SDS011;30214;52.246;14.408;2023-03-05T07:03:16;8.98;;;1.67;;
44508;SDS011;30214;52.246;14.408;2023-03-05T07:05:44;13.25;;;2.17;;
44508;SDS011;30214;52.246;14.408;2023-03-05T07:08:13;5.78;;;1.55;;
44508;SDS011;30214;52.246;14.408;2023-03-05T07:10:41;5.18;;;1.67;;
44508;SDS011;30214;52.246;14.408;2023-03-05T07:13:11;9.40;;;2.00;;
44508;SDS011;30214;52.246;14.408;2023-03-05T07:15:39;8.35;;;1.70;;
44508;SDS011;30214;52.246;14.408;2023-03-05T07:18:07;11.15;;;2.20;;
44508;SDS011;30214;52.246;14.408;2023-03-05T07:20:34;9.05;;;1.83;;
44508;SDS011;30214;52.246;14.408;2023-03-05T07:23:02;11.27;;;2.60;;
44508;SDS011;30214;52.246;14.408;2023-03-05T07:25:30;6.55;;;1.52;;
44508;SDS011;30214;52.246;14.408;2023-03-05T07:27:58;8.00;;;1.38;;
44508;SDS011;30214;52.246;14.408;2023-03-05T07:30:26;7.30;;;1.35;;
44508;SDS011;30214;52.246;14.408;2023-03-05T07:32:53;9.07;;;1.42;;
44508;SDS011;30214;52.246;14.408;2023-03-05T07:35:21;6.10;;;1.70;;
44508;SDS011;30214;52.246;14.408;2023-03-05T07:37:49;8.85;;;1.48;;
44508;SDS011;30214;52.246;14.408;2023-03-05T07:40:19;7.45;;;1.80;;
44508;SDS011;30214;52.246;14.408;2023-03-05T07:42:46;11.18;;;1.90;;
44508;SDS011;30214;52.246;14.408;2023-03-05T07:45:22;10.00;;;2.10;;
44508;SDS011;30214;52.246;14.408;2023-03-05T07:47:50;7.20;;;1.63;;
44508;SDS011;30214;52.246;14.408;2023-03-05T07:50:18;10.88;;;1.83;;
44508;SDS011;30214;52.246;14.408;2023-03-05T07:52:45;7.57;;;1.55;;
44508;SDS011;30214;52.246;14.408;2023-03-05T07:55:13;11.32;;;1.80;;
44508;SDS011;30214;52.246;14.408;2023-03-05T07:57:41;5.70;;;1.42;;
44508;SDS011;30214;52.246;14.408;2023-03-05T08:00:09;11.43;;;2.00;;
44508;SDS011;30214;52.246;14.408;2023-03-05T08:02:37;10.43;;;2.40;;
44508;SDS011;30214;52.246;14.408;2023-03-05T08:05:07;6.85;;;1.70;;
44508;SDS011;30214;52.246;14.408;2023-03-05T08:07:35;6.25;;;1.90;;
44508;SDS011;30214;52.246;14.408;2023-03-05T08:10:02;7.53;;;1.60;;
44508;SDS011;30214;52.246;14.408;2023-03-05T08:12:30;6.50;;;1.73;;
44508;SDS011;30214;52.246;14.408;2023-03-05T08:14:58;13.00;;;2.25;;
44508;SDS011;30214;52.246;14.408;2023-03-05T08:17:28;8.07;;;2.05;;
44508;SDS011;30214;52.246;14.408;2023-03-05T08:19:55;8.45;;;1.85;;
44508;SDS011;30214;52.246;14.408;2023-03-05T08:22:25;6.10;;;1.75;;
44508;SDS011;30214;52.246;14.408;2023-03-05T08:24:52;11.65;;;3.00;;
44508;SDS011;30214;52.246;14.408;2023-03-05T08:27:19;9.02;;;2.00;;
44508;SDS011;30214;52.246;14.408;2023-03-05T08:29:47;8.63;;;1.92;;
44508;SDS011;30214;52.246;14.408;2023-03-05T08:32:14;6.10;;;1.80;;
44508;SDS011;30214;52.246;14.408;2023-03-05T08:34:41;8.02;;;2.25;;
44508;SDS011;30214;52.246;14.408;2023-03-05T08:37:09;7.40;;;2.10;;
44508;SDS011;30214;52.246;14.408;2023-03-05T08:39:38;8.45;;;2.10;;
44508;SDS011;30214;52.246;14.408;2023-03-05T08:42:07;7.72;;;1.70;;
44508;SDS011;30214;52.246;14.408;2023-03-05T08:44:34;6.20;;;1.55;;
44508;SDS011;30214;52.246;14.408;2023-03-05T08:47:01;5.63;;;2.08;;
44508;SDS011;30214;52.246;14.408;2023-03-05T08:49:28;6.38;;;1.63;;
44508;SDS011;30214;52.246;14.408;2023-03-05T08:51:56;7.47;;;1.70;;
44508;SDS011;30214;52.246;14.408;2023-03-05T08:54:23;5.97;;;1.67;;
44508;SDS011;30214;52.246;14.408;2023-03-05T08:56:52;6.43;;;1.73;;
44508;SDS011;30214;52.246;14.408;2023-03-05T08:59:19;17.23;;;8.52;;
44508;SDS011;30214;52.246;14.408;2023-03-05T09:01:46;8.05;;;2.55;;
44508;SDS011;30214;52.246;14.408;2023-03-05T09:04:16;10.68;;;4.25;;
44508;SDS011;30214;52.246;14.408;2023-03-05T09:06:43;6.07;;;3.25;;
44508;SDS011;30214;52.246;14.408;2023-03-05T09:09:11;6.63;;;1.67;;
44508;SDS011;30214;52.246;14.408;2023-03-05T09:11:40;6.65;;;1.80;;
44508;SDS011;30214;52.246;14.408;2023-03-05T09:14:09;6.53;;;1.42;;
44508;SDS011;30214;52.246;14.408;2023-03-05T09:16:37;6.90;;;2.13;;
44508;SDS011;30214;52.246;14.408;2023-03-05T09:19:05;6.65;;;2.05;;
44508;SDS011;30214;52.246;14.408;2023-03-05T09:21:34;7.35;;;1.65;;
44508;SDS011;30214;52.246;14.408;2023-03-05T09:24:02;6.90;;;1.60;;
44508;SDS011;30214;52.246;14.408;2023-03-05T09:26:29;8.13;;;2.65;;
44508;SDS011;30214;52.246;14.408;2023-03-05T09:28:57;9.45;;;2.50;;
44508;SDS011;30214;52.246;14.408;2023-03-05T09:31:25;10.50;;;1.80;;
44508;SDS011;30214;52.246;14.408;2023-03-05T09:33:53;6.03;;;1.27;;
44508;SDS011;30214;52.246;14.408;2023-03-05T09:36:21;4.60;;;1.50;;
44508;SDS011;30214;52.246;14.408;2023-03-05T09:38:51;6.88;;;2.25;;
44508;SDS011;30214;52.246;14.408;2023-03-05T09:41:25;8.77;;;1.45;;
44508;SDS011;30214;52.246;14.408;2023-03-05T09:44:05;6.47;;;1.25;;
44508;SDS011;30214;52.246;14.408;2023-03-05T09:46:48;4.25;;;1.30;;
44508;SDS011;30214;52.246;14.408;2023-03-05T09:49:22;4.13;;;1.30;;
44508;SDS011;30214;52.246;14.408;2023-03-05T09:52:00;3.28;;;1.25;;
44508;SDS011;30214;52.246;14.408;2023-03-05T09:54:34;5.60;;;1.50;;
44508;SDS011;30214;52.246;14.408;2023-03-05T09:57:05;7.60;;;1.30;;
44508;SDS011;30214;52.246;14.408;2023-03-05T09:59:45;8.45;;;1.35;;
44508;SDS011;30214;52.246;14.408;2023-03-05T10:02:17;6.90;;;1.63;;
44508;SDS011;30214;52.246;14.408;2023-03-05T10:04:51;5.47;;;1.23;;
44508;SDS011;30214;52.246;14.408;2023-03-05T10:07:24;4.47;;;1.42;;
44508;SDS011;30214;52.246;14.408;2023-03-05T10:09:56;5.00;;;1.25;;
44508;SDS011;30214;52.246;14.408;2023-03-05T10:12:26;6.18;;;1.10;;
44508;SDS011;30214;52.246;14.408;2023-03-05T10:15:08;4.03;;;1.02;;
44508;SDS011;30214;52.246;14.408;2023-03-05T10:26:32;3.88;;;1.60;;
44508;SDS011;30214;52.246;14.408;2023-03-05T10:29:17;4.53;;;1.45;;
44508;SDS011;30214;52.246;14.408;2023-03-05T10:32:07;3.25;;;1.02;;
44508;SDS011;30214;52.246;14.408;2023-03-05T10:34:53;5.43;;;1.30;;
44508;SDS011;30214;52.246;14.408;2023-03-05T10:37:50;5.53;;;1.55;;
44508;SDS011;30214;52.246;14.408;2023-03-05T10:40:31;5.00;;;1.25;;
44508;SDS011;30214;52.246;14.408;2023-03-05T10:43:06;4.20;;;1.23;;
44508;SDS011;30214;52.246;14.408;2023-03-05T10:45:48;6.22;;;1.42;;
44508;SDS011;30214;52.246;14.408;2023-03-05T10:48:22;7.75;;;2.92;;
44508;SDS011;30214;52.246;14.408;2023-03-05T10:51:01;10.02;;;3.80;;
44508;SDS011;30214;52.246;14.408;2023-03-05T10:53:40;12.43;;;4.53;;
44508;SDS011;30214;52.246;14.408;2023-03-05T10:56:16;9.45;;;4.03;;
44508;SDS011;30214;52.246;14.408;2023-03-05T10:58:47;4.70;;;1.30;;
44508;SDS011;30214;52.246;14.408;2023-03-05T11:01:20;4.93;;;1.55;;
44508;SDS011;30214;52.246;14.408;2023-03-05T11:03:52;3.92;;;2.00;;
44508;SDS011;30214;52.246;14.408;2023-03-05T11:06:33;4.65;;;1.40;;
44508;SDS011;30214;52.246;14.408;2023-03-05T11:09:16;5.78;;;1.55;;
44508;SDS011;30214;52.246;14.408;2023-03-05T11:15:00;4.25;;;0.98;;
44508;SDS011;30214;52.246;14.408;2023-03-05T11:17:33;3.22;;;1.58;;
44508;SDS011;30214;52.246;14.408;2023-03-05T11:23:08;7.20;;;1.38;;
44508;SDS011;30214;52.246;14.408;2023-03-05T11:25:57;5.53;;;1.48;;
44508;SDS011;30214;52.246;14.408;2023-03-05T11:28:30;10.32;;;1.20;;
44508;SDS011;30214;52.246;14.408;2023-03-05T11:31:05;7.07;;;1.42;;
44508;SDS011;30214;52.246;14.408;2023-03-05T11:33:53;6.00;;;1.50;;
44508;SDS011;30214;52.246;14.408;2023-03-05T11:36:25;5.25;;;1.67;;
44508;SDS011;30214;52.246;14.408;2023-03-05T11:38:58;5.05;;;1.30;;
44508;SDS011;30214;52.246;14.408;2023-03-05T11:41:37;4.25;;;1.20;;
44508;SDS011;30214;52.246;14.408;2023-03-05T11:44:10;5.57;;;1.20;;
44508;SDS011;30214;52.246;14.408;2023-03-05T11:46:41;4.45;;;1.42;;
44508;SDS011;30214;52.246;14.408;2023-03-05T11:49:13;4.40;;;1.38;;
44508;SDS011;30214;52.246;14.408;2023-03-05T11:51:48;5.30;;;1.40;;
44508;SDS011;30214;52.246;14.408;2023-03-05T11:54:25;3.78;;;1.10;;
44508;SDS011;30214;52.246;14.408;2023-03-05T11:56:59;5.45;;;1.40;;
44508;SDS011;30214;52.246;14.408;2023-03-05T11:59:28;5.60;;;1.30;;
44508;SDS011;30214;52.246;14.408;2023-03-05T12:01:59;5.05;;;1.50;;
44508;SDS011;30214;52.246;14.408;2023-03-05T12:04:28;5.70;;;2.33;;
44508;SDS011;30214;52.246;14.408;2023-03-05T12:06:59;11.23;;;4.63;;
44508;SDS011;30214;52.246;14.408;2023-03-05T12:09:31;10.30;;;5.57;;
44508;SDS011;30214;52.246;14.408;2023-03-05T12:12:08;8.55;;;3.47;;
44508;SDS011;30214;52.246;14.408;2023-03-05T12:14:52;15.07;;;6.68;;
44508;SDS011;30214;52.246;14.408;2023-03-05T12:17:27;12.38;;;5.95;;
44508;SDS011;30214;52.246;14.408;2023-03-05T12:19:59;11.88;;;7.85;;
44508;SDS011;30214;52.246;14.408;2023-03-05T12:22:33;10.07;;;5.07;;
44508;SDS011;30214;52.246;14.408;2023-03-05T12:27:56;6.72;;;2.42;;
44508;SDS011;30214;52.246;14.408;2023-03-05T12:33:28;7.20;;;1.92;;
44508;SDS011;30214;52.246;14.408;2023-03-05T12:39:28;6.82;;;2.38;;
44508;SDS011;30214;52.246;14.408;2023-03-05T12:42:41;4.97;;;2.65;;
44508;SDS011;30214;52.246;14.408;2023-03-05T12:45:34;4.25;;;1.60;;
44508;SDS011;30214;52.246;14.408;2023-03-05T12:51:14;5.70;;;1.70;;
44508;SDS011;30214;52.246;14.408;2023-03-05T12:53:56;8.90;;;2.40;;
44508;SDS011;30214;52.246;14.408;2023-03-05T12:56:48;4.28;;;1.92;;
44508;SDS011;30214;52.246;14.408;2023-03-05T12:59:21;7.95;;;2.63;;
44508;SDS011;30214;52.246;14.408;2023-03-05T13:02:00;5.03;;;2.00;;
44508;SDS011;30214;52.246;14.408;2023-03-05T13:04:30;8.13;;;1.85;;
44508;SDS011;30214;52.246;14.408;2023-03-05T13:07:02;3.78;;;1.30;;
44508;SDS011;30214;52.246;14.408;2023-03-05T13:09:32;4.13;;;2.03;;
44508;SDS011;30214;52.246;14.408;2023-03-05T13:12:00;7.18;;;1.42;;
44508;SDS011;30214;52.246;14.408;2023-03-05T13:14:33;6.25;;;2.15;;
44508;SDS011;30214;52.246;14.408;2023-03-05T13:19:57;3.40;;;1.50;;
44508;SDS011;30214;52.246;14.408;2023-03-05T13:22:26;4.57;;;1.40;;
44508;SDS011;30214;52.246;14.408;2023-03-05T13:25:04;5.18;;;1.67;;
44508;SDS011;30214;52.246;14.408;2023-03-05T13:27:39;5.65;;;1.58;;
44508;SDS011;30214;52.246;14.408;2023-03-05T13:30:20;6.93;;;1.60;;
44508;SDS011;30214;52.246;14.408;2023-03-05T13:32:50;3.40;;;1.50;;
44508;SDS011;30214;52.246;14.408;2023-03-05T13:35:20;6.10;;;1.50;;
44508;SDS011;30214;52.246;14.408;2023-03-05T13:37:48;6.90;;;1.52;;
44508;SDS011;30214;52.246;14.408;2023-03-05T13:40:19;3.80;;;1.60;;
44508;SDS011;30214;52.246;14.408;2023-03-05T13:42:49;4.25;;;1.50;;
44508;SDS011;30214;52.246;14.408;2023-03-05T13:45:23;6.10;;;1.52;;
44508;SDS011;30214;52.246;14.408;2023-03-05T13:47:53;7.70;;;1.73;;
44508;SDS011;30214;52.246;14.408;2023-03-05T13:50:27;19.67;;;7.88;;
44508;SDS011;30214;52.246;14.408;2023-03-05T13:52:56;8.13;;;3.00;;
44508;SDS011;30214;52.246;14.408;2023-03-05T13:55:42;8.00;;;3.35;;
44508;SDS011;30214;52.246;14.408;2023-03-05T14:01:13;10.75;;;4.07;;
44508;SDS011;30214;52.246;14.408;2023-03-05T14:03:49;10.15;;;4.10;;
44508;SDS011;30214;52.246;14.408;2023-03-05T14:06:18;8.18;;;2.80;;
44508;SDS011;30214;52.246;14.408;2023-03-05T14:08:48;7.28;;;1.92;;
44508;SDS011;30214;52.246;14.408;2023-03-05T14:11:17;8.45;;;2.20;;
44508;SDS011;30214;52.246;14.408;2023-03-05T14:13:47;5.05;;;2.05;;
44508;SDS011;30214;52.246;14.408;2023-03-05T14:16:24;3.58;;;1.75;;
44508;SDS011;30214;52.246;14.408;2023-03-05T14:18:57;4.72;;;1.88;;
44508;SDS011;30214;52.246;14.408;2023-03-05T14:21:41;9.25;;;3.13;;
44508;SDS011;30214;52.246;14.408;2023-03-05T14:24:11;4.88;;;1.40;;
44508;SDS011;30214;52.246;14.408;2023-03-05T14:26:45;6.88;;;1.70;;
44508;SDS011;30214;52.246;14.408;2023-03-05T14:29:18;3.83;;;1.30;;
44508;SDS011;30214;52.246;14.408;2023-03-05T14:31:51;5.65;;;1.40;;
44508;SDS011;30214;52.246;14.408;2023-03-05T14:34:21;5.63;;;1.30;;
44508;SDS011;30214;52.246;14.408;2023-03-05T14:36:53;5.97;;;1.40;;
44508;SDS011;30214;52.246;14.408;2023-03-05T14:39:27;8.45;;;1.50;;
44508;SDS011;30214;52.246;14.408;2023-03-05T14:45:00;5.93;;;1.50;;
44508;SDS011;30214;52.246;14.408;2023-03-05T14:47:38;3.72;;;1.50;;
44508;SDS011;30214;52.246;14.408;2023-03-05T14:50:06;7.47;;;1.50;;
44508;SDS011;30214;52.246;14.408;2023-03-05T14:52:35;6.88;;;2.35;;
44508;SDS011;30214;52.246;14.408;2023-03-05T14:55:02;5.28;;;1.48;;
44508;SDS011;30214;52.246;14.408;2023-03-05T14:57:31;4.22;;;1.17;;
44508;SDS011;30214;52.246;14.408;2023-03-05T14:59:58;5.07;;;1.40;;
44508;SDS011;30214;52.246;14.408;2023-03-05T15:02:26;5.35;;;1.73;;
44508;SDS011;30214;52.246;14.408;2023-03-05T15:05:06;3.95;;;1.60;;
44508;SDS011;30214;52.246;14.408;2023-03-05T15:07:38;5.57;;;1.40;;
44508;SDS011;30214;52.246;14.408;2023-03-05T15:10:11;4.45;;;1.10;;
44508;SDS011;30214;52.246;14.408;2023-03-05T15:12:45;4.43;;;1.30;;
44508;SDS011;30214;52.246;14.408;2023-03-05T15:15:14;3.90;;;1.33;;
44508;SDS011;30214;52.246;14.408;2023-03-05T15:17:44;8.20;;;1.23;;
44508;SDS011;30214;52.246;14.408;2023-03-05T15:20:15;7.13;;;1.50;;
44508;SDS011;30214;52.246;14.408;2023-03-05T15:22:46;4.10;;;1.25;;
44508;SDS011;30214;52.246;14.408;2023-03-05T15:25:14;4.53;;;1.20;;
44508;SDS011;30214;52.246;14.408;2023-03-05T15:27:41;4.20;;;1.40;;
44508;SDS011;30214;52.246;14.408;2023-03-05T15:30:12;21.80;;;13.45;;